sensor_id;sensor_type;location;lat;lon;timestamp;P1;durP1;ratioP1;P2;durP2;ratioP2
9547;SDS011;4812;51.992;8.648;2022-10-13T00:01:43;19.30;;;16.43;;
9547;SDS011;4812;51.992;8.648;2022-10-13T00:04:12;21.57;;;16.60;;
9547;SDS011;4812;51.992;8.648;2022-10-13T00:06:39;21.33;;;16.50;;
9547;SDS011;4812;51.992;8.648;2022-10-13T00:09:06;23.60;;;17.50;;
9547;SDS011;4812;51.992;8.648;2022-10-13T00:11:34;19.50;;;17.07;;
9547;SDS011;4812;51.992;8.648;2022-10-13T00:14:02;24.53;;;16.83;;
9547;SDS011;4812;51.992;8.648;2022-10-13T00:16:33;24.60;;;16.57;;
9547;SDS011;4812;51.992;8.648;2022-10-13T00:19:01;20.23;;;16.47;;
9547;SDS011;4812;51.992;8.648;2022-10-13T00:21:30;19.93;;;16.90;;
9547;SDS011;4812;51.992;8.648;2022-10-13T00:23:57;20.80;;;16.00;;
9547;SDS011;4812;51.992;8.648;2022-10-13T00:26:25;22.13;;;16.87;;
9547;SDS011;4812;51.992;8.648;2022-10-13T00:28:53;22.00;;;17.43;;
9547;SDS011;4812;51.992;8.648;2022-10-13T00:31:21;19.83;;;16.67;;
9547;SDS011;4812;51.992;8.648;2022-10-13T00:33:50;20.90;;;15.97;;
9547;SDS011;4812;51.992;8.648;2022-10-13T00:36:19;21.30;;;16.00;;
9547;SDS011;4812;51.992;8.648;2022-10-13T00:38:48;18.70;;;16.40;;
9547;SDS011;4812;51.992;8.648;2022-10-13T00:41:16;21.63;;;16.67;;
9547;SDS011;4812;51.992;8.648;2022-10-13T00:43:47;22.33;;;17.37;;
9547;SDS011;4812;51.992;8.648;2022-10-13T00:46:17;20.57;;;16.50;;
9547;SDS011;4812;51.992;8.648;2022-10-13T00:48:45;20.30;;;16.20;;
9547;SDS011;4812;51.992;8.648;2022-10-13T00:51:14;23.17;;;17.20;;
9547;SDS011;4812;51.992;8.648;2022-10-13T00:53:42;21.37;;;16.40;;
9547;SDS011;4812;51.992;8.648;2022-10-13T00:56:11;19.53;;;16.33;;
9547;SDS011;4812;51.992;8.648;2022-10-13T00:58:40;24.10;;;15.93;;
9547;SDS011;4812;51.992;8.648;2022-10-13T01:01:09;20.20;;;15.53;;
9547;SDS011;4812;51.992;8.648;2022-10-13T01:03:37;18.87;;;15.83;;
9547;SDS011;4812;51.992;8.648;2022-10-13T01:06:05;23.33;;;17.50;;
9547;SDS011;4812;51.992;8.648;2022-10-13T01:08:33;21.17;;;17.40;;
9547;SDS011;4812;51.992;8.648;2022-10-13T01:11:04;22.87;;;17.00;;
9547;SDS011;4812;51.992;8.648;2022-10-13T01:13:45;25.80;;;17.63;;
9547;SDS011;4812;51.992;8.648;2022-10-13T01:16:18;22.33;;;16.63;;
9547;SDS011;4812;51.992;8.648;2022-10-13T01:18:50;22.70;;;16.93;;
9547;SDS011;4812;51.992;8.648;2022-10-13T01:21:23;21.17;;;16.83;;
9547;SDS011;4812;51.992;8.648;2022-10-13T01:32:42;22.97;;;17.83;;
9547;SDS011;4812;51.992;8.648;2022-10-13T01:35:18;21.30;;;16.93;;
9547;SDS011;4812;51.992;8.648;2022-10-13T01:37:48;21.37;;;18.17;;
9547;SDS011;4812;51.992;8.648;2022-10-13T01:40:23;26.07;;;17.93;;
9547;SDS011;4812;51.992;8.648;2022-10-13T01:42:54;22.50;;;17.60;;
9547;SDS011;4812;51.992;8.648;2022-10-13T01:45:27;23.33;;;18.07;;
9547;SDS011;4812;51.992;8.648;2022-10-13T01:47:57;21.47;;;17.07;;
9547;SDS011;4812;51.992;8.648;2022-10-13T01:50:25;23.83;;;18.67;;
9547;SDS011;4812;51.992;8.648;2022-10-13T01:52:54;22.30;;;17.73;;
9547;SDS011;4812;51.992;8.648;2022-10-13T01:55:22;23.17;;;16.77;;
9547;SDS011;4812;51.992;8.648;2022-10-13T01:57:49;24.63;;;18.07;;
9547;SDS011;4812;51.992;8.648;2022-10-13T02:00:18;22.23;;;19.10;;
9547;SDS011;4812;51.992;8.648;2022-10-13T02:02:51;20.30;;;18.10;;
9547;SDS011;4812;51.992;8.648;2022-10-13T02:05:28;22.20;;;18.03;;
9547;SDS011;4812;51.992;8.648;2022-10-13T02:08:03;23.47;;;17.80;;
9547;SDS011;4812;51.992;8.648;2022-10-13T02:10:37;22.97;;;17.37;;
9547;SDS011;4812;51.992;8.648;2022-10-13T02:13:08;21.97;;;18.37;;
9547;SDS011;4812;51.992;8.648;2022-10-13T02:15:39;23.77;;;18.40;;
9547;SDS011;4812;51.992;8.648;2022-10-13T02:18:11;23.53;;;18.27;;
9547;SDS011;4812;51.992;8.648;2022-10-13T02:20:40;27.67;;;19.10;;
9547;SDS011;4812;51.992;8.648;2022-10-13T02:23:10;25.40;;;18.67;;
9547;SDS011;4812;51.992;8.648;2022-10-13T02:25:39;21.00;;;18.90;;
9547;SDS011;4812;51.992;8.648;2022-10-13T02:28:07;24.27;;;20.03;;
9547;SDS011;4812;51.992;8.648;2022-10-13T02:30:40;24.73;;;19.57;;
9547;SDS011;4812;51.992;8.648;2022-10-13T02:33:09;23.93;;;18.83;;
9547;SDS011;4812;51.992;8.648;2022-10-13T02:35:39;28.57;;;19.50;;
9547;SDS011;4812;51.992;8.648;2022-10-13T02:38:07;27.70;;;19.27;;
9547;SDS011;4812;51.992;8.648;2022-10-13T02:40:34;27.07;;;19.63;;
9547;SDS011;4812;51.992;8.648;2022-10-13T02:43:02;21.97;;;18.60;;
9547;SDS011;4812;51.992;8.648;2022-10-13T02:45:29;22.50;;;19.67;;
9547;SDS011;4812;51.992;8.648;2022-10-13T02:47:57;22.93;;;18.73;;
9547;SDS011;4812;51.992;8.648;2022-10-13T02:50:25;20.83;;;18.67;;
9547;SDS011;4812;51.992;8.648;2022-10-13T02:52:55;24.90;;;19.67;;
9547;SDS011;4812;51.992;8.648;2022-10-13T02:55:22;29.13;;;19.97;;
9547;SDS011;4812;51.992;8.648;2022-10-13T02:57:54;25.63;;;19.33;;
9547;SDS011;4812;51.992;8.648;2022-10-13T03:00:22;23.13;;;19.20;;
9547;SDS011;4812;51.992;8.648;2022-10-13T03:02:49;25.70;;;19.77;;
9547;SDS011;4812;51.992;8.648;2022-10-13T03:05:16;24.73;;;20.60;;
9547;SDS011;4812;51.992;8.648;2022-10-13T03:07:45;26.63;;;20.20;;
9547;SDS011;4812;51.992;8.648;2022-10-13T03:10:13;22.27;;;19.80;;
9547;SDS011;4812;51.992;8.648;2022-10-13T03:12:40;24.77;;;20.67;;
9547;SDS011;4812;51.992;8.648;2022-10-13T03:15:08;28.60;;;20.17;;
9547;SDS011;4812;51.992;8.648;2022-10-13T03:17:35;29.77;;;20.43;;
9547;SDS011;4812;51.992;8.648;2022-10-13T03:20:03;22.50;;;20.07;;
9547;SDS011;4812;51.992;8.648;2022-10-13T03:22:31;23.67;;;20.47;;
9547;SDS011;4812;51.992;8.648;2022-10-13T03:25:00;28.17;;;20.43;;
9547;SDS011;4812;51.992;8.648;2022-10-13T03:27:28;23.00;;;20.60;;
9547;SDS011;4812;51.992;8.648;2022-10-13T03:29:56;28.03;;;20.83;;
9547;SDS011;4812;51.992;8.648;2022-10-13T03:32:23;24.37;;;20.87;;
9547;SDS011;4812;51.992;8.648;2022-10-13T03:34:51;23.60;;;20.67;;
9547;SDS011;4812;51.992;8.648;2022-10-13T03:37:18;24.50;;;20.10;;
9547;SDS011;4812;51.992;8.648;2022-10-13T03:39:46;26.80;;;20.97;;
9547;SDS011;4812;51.992;8.648;2022-10-13T03:42:14;27.80;;;19.83;;
9547;SDS011;4812;51.992;8.648;2022-10-13T03:44:46;27.20;;;20.47;;
9547;SDS011;4812;51.992;8.648;2022-10-13T03:47:20;24.83;;;20.70;;
9547;SDS011;4812;51.992;8.648;2022-10-13T03:49:47;23.90;;;21.43;;
9547;SDS011;4812;51.992;8.648;2022-10-13T03:52:15;26.07;;;20.83;;
9547;SDS011;4812;51.992;8.648;2022-10-13T03:54:43;24.77;;;20.73;;
9547;SDS011;4812;51.992;8.648;2022-10-13T03:57:10;25.00;;;20.13;;
9547;SDS011;4812;51.992;8.648;2022-10-13T03:59:39;28.33;;;21.63;;
9547;SDS011;4812;51.992;8.648;2022-10-13T04:02:07;23.67;;;20.50;;
9547;SDS011;4812;51.992;8.648;2022-10-13T04:04:35;25.47;;;21.87;;
9547;SDS011;4812;51.992;8.648;2022-10-13T04:07:06;23.43;;;20.53;;
9547;SDS011;4812;51.992;8.648;2022-10-13T04:09:33;24.00;;;21.03;;
9547;SDS011;4812;51.992;8.648;2022-10-13T04:12:01;24.87;;;21.87;;
9547;SDS011;4812;51.992;8.648;2022-10-13T04:14:28;24.50;;;21.90;;
9547;SDS011;4812;51.992;8.648;2022-10-13T04:17:03;24.63;;;21.13;;
9547;SDS011;4812;51.992;8.648;2022-10-13T04:19:30;26.97;;;22.00;;
9547;SDS011;4812;51.992;8.648;2022-10-13T04:22:03;29.30;;;21.03;;
9547;SDS011;4812;51.992;8.648;2022-10-13T04:24:31;23.33;;;20.70;;
9547;SDS011;4812;51.992;8.648;2022-10-13T04:26:59;25.83;;;21.23;;
9547;SDS011;4812;51.992;8.648;2022-10-13T04:29:26;27.37;;;21.13;;
9547;SDS011;4812;51.992;8.648;2022-10-13T04:31:54;30.47;;;21.13;;
9547;SDS011;4812;51.992;8.648;2022-10-13T04:34:22;25.33;;;21.43;;
9547;SDS011;4812;51.992;8.648;2022-10-13T04:36:50;23.50;;;21.07;;
9547;SDS011;4812;51.992;8.648;2022-10-13T04:39:17;23.70;;;21.30;;
9547;SDS011;4812;51.992;8.648;2022-10-13T04:41:48;25.77;;;22.97;;
9547;SDS011;4812;51.992;8.648;2022-10-13T04:44:15;26.60;;;21.90;;
9547;SDS011;4812;51.992;8.648;2022-10-13T04:46:43;26.90;;;21.23;;
9547;SDS011;4812;51.992;8.648;2022-10-13T04:49:10;27.13;;;22.73;;
9547;SDS011;4812;51.992;8.648;2022-10-13T04:51:40;24.13;;;21.50;;
9547;SDS011;4812;51.992;8.648;2022-10-13T04:54:08;24.03;;;21.67;;
9547;SDS011;4812;51.992;8.648;2022-10-13T04:56:35;27.77;;;22.17;;
9547;SDS011;4812;51.992;8.648;2022-10-13T04:59:03;24.07;;;21.53;;
9547;SDS011;4812;51.992;8.648;2022-10-13T05:01:31;24.43;;;21.93;;
9547;SDS011;4812;51.992;8.648;2022-10-13T05:04:00;26.67;;;21.27;;
9547;SDS011;4812;51.992;8.648;2022-10-13T05:06:34;22.57;;;20.47;;
9547;SDS011;4812;51.992;8.648;2022-10-13T05:09:24;23.13;;;20.77;;
9547;SDS011;4812;51.992;8.648;2022-10-13T05:11:51;25.73;;;21.63;;
9547;SDS011;4812;51.992;8.648;2022-10-13T05:14:20;24.57;;;21.90;;
9547;SDS011;4812;51.992;8.648;2022-10-13T05:16:47;25.03;;;22.17;;
9547;SDS011;4812;51.992;8.648;2022-10-13T05:19:15;26.57;;;21.93;;
9547;SDS011;4812;51.992;8.648;2022-10-13T05:21:42;26.30;;;21.47;;
9547;SDS011;4812;51.992;8.648;2022-10-13T05:24:09;24.33;;;21.23;;
9547;SDS011;4812;51.992;8.648;2022-10-13T05:26:40;23.33;;;21.00;;
9547;SDS011;4812;51.992;8.648;2022-10-13T05:29:08;25.00;;;22.00;;
9547;SDS011;4812;51.992;8.648;2022-10-13T05:31:35;28.20;;;21.23;;
9547;SDS011;4812;51.992;8.648;2022-10-13T05:34:03;24.20;;;21.60;;
9547;SDS011;4812;51.992;8.648;2022-10-13T05:36:31;23.43;;;21.13;;
9547;SDS011;4812;51.992;8.648;2022-10-13T05:39:00;22.47;;;20.07;;
9547;SDS011;4812;51.992;8.648;2022-10-13T05:41:30;25.30;;;21.17;;
9547;SDS011;4812;51.992;8.648;2022-10-13T05:43:59;24.87;;;21.23;;
9547;SDS011;4812;51.992;8.648;2022-10-13T05:46:28;23.13;;;20.67;;
9547;SDS011;4812;51.992;8.648;2022-10-13T05:48:56;28.00;;;21.20;;
9547;SDS011;4812;51.992;8.648;2022-10-13T05:51:24;24.63;;;21.00;;
9547;SDS011;4812;51.992;8.648;2022-10-13T05:53:54;25.80;;;21.47;;
9547;SDS011;4812;51.992;8.648;2022-10-13T05:56:26;24.77;;;22.10;;
9547;SDS011;4812;51.992;8.648;2022-10-13T05:58:59;23.17;;;20.73;;
9547;SDS011;4812;51.992;8.648;2022-10-13T06:01:29;23.57;;;21.00;;
9547;SDS011;4812;51.992;8.648;2022-10-13T06:03:58;24.03;;;21.27;;
9547;SDS011;4812;51.992;8.648;2022-10-13T06:06:29;24.23;;;21.43;;
9547;SDS011;4812;51.992;8.648;2022-10-13T06:08:57;25.60;;;21.97;;
9547;SDS011;4812;51.992;8.648;2022-10-13T06:11:24;23.47;;;20.97;;
9547;SDS011;4812;51.992;8.648;2022-10-13T06:13:52;24.07;;;21.87;;
9547;SDS011;4812;51.992;8.648;2022-10-13T06:16:20;23.63;;;21.17;;
9547;SDS011;4812;51.992;8.648;2022-10-13T06:18:48;25.87;;;22.20;;
9547;SDS011;4812;51.992;8.648;2022-10-13T06:21:15;22.90;;;20.53;;
9547;SDS011;4812;51.992;8.648;2022-10-13T06:23:43;23.90;;;21.63;;
9547;SDS011;4812;51.992;8.648;2022-10-13T06:26:10;23.23;;;20.90;;
9547;SDS011;4812;51.992;8.648;2022-10-13T06:28:38;24.40;;;21.97;;
9547;SDS011;4812;51.992;8.648;2022-10-13T06:31:05;23.83;;;21.37;;
9547;SDS011;4812;51.992;8.648;2022-10-13T06:33:34;23.87;;;21.23;;
9547;SDS011;4812;51.992;8.648;2022-10-13T06:36:02;23.67;;;21.47;;
9547;SDS011;4812;51.992;8.648;2022-10-13T06:38:30;23.63;;;21.27;;
9547;SDS011;4812;51.992;8.648;2022-10-13T06:40:58;25.07;;;22.40;;
9547;SDS011;4812;51.992;8.648;2022-10-13T06:43:26;24.03;;;21.67;;
9547;SDS011;4812;51.992;8.648;2022-10-13T06:46:07;25.37;;;21.83;;
9547;SDS011;4812;51.992;8.648;2022-10-13T06:48:36;25.43;;;22.03;;
9547;SDS011;4812;51.992;8.648;2022-10-13T06:51:05;24.43;;;21.30;;
9547;SDS011;4812;51.992;8.648;2022-10-13T06:53:33;21.87;;;19.97;;
9547;SDS011;4812;51.992;8.648;2022-10-13T06:56:02;22.87;;;20.43;;
9547;SDS011;4812;51.992;8.648;2022-10-13T06:58:30;23.20;;;21.00;;
9547;SDS011;4812;51.992;8.648;2022-10-13T07:00:58;22.30;;;20.30;;
9547;SDS011;4812;51.992;8.648;2022-10-13T07:03:25;23.00;;;20.90;;
9547;SDS011;4812;51.992;8.648;2022-10-13T07:05:56;23.27;;;20.97;;
9547;SDS011;4812;51.992;8.648;2022-10-13T07:08:26;22.80;;;20.50;;
9547;SDS011;4812;51.992;8.648;2022-10-13T07:10:53;22.53;;;20.40;;
9547;SDS011;4812;51.992;8.648;2022-10-13T07:13:21;22.30;;;19.73;;
9547;SDS011;4812;51.992;8.648;2022-10-13T07:15:48;23.23;;;20.30;;
9547;SDS011;4812;51.992;8.648;2022-10-13T07:18:16;23.37;;;21.07;;
9547;SDS011;4812;51.992;8.648;2022-10-13T07:20:43;23.27;;;20.97;;
9547;SDS011;4812;51.992;8.648;2022-10-13T07:23:12;23.17;;;20.77;;
9547;SDS011;4812;51.992;8.648;2022-10-13T07:25:40;22.67;;;20.37;;
9547;SDS011;4812;51.992;8.648;2022-10-13T07:28:07;22.40;;;20.50;;
9547;SDS011;4812;51.992;8.648;2022-10-13T07:30:34;22.77;;;20.60;;
9547;SDS011;4812;51.992;8.648;2022-10-13T07:33:04;23.07;;;20.40;;
9547;SDS011;4812;51.992;8.648;2022-10-13T07:35:32;24.37;;;21.80;;
9547;SDS011;4812;51.992;8.648;2022-10-13T07:37:59;23.03;;;20.50;;
9547;SDS011;4812;51.992;8.648;2022-10-13T07:40:28;23.10;;;20.70;;
9547;SDS011;4812;51.992;8.648;2022-10-13T07:42:56;22.70;;;20.47;;
9547;SDS011;4812;51.992;8.648;2022-10-13T07:45:23;23.83;;;20.87;;
9547;SDS011;4812;51.992;8.648;2022-10-13T07:47:51;23.27;;;20.77;;
9547;SDS011;4812;51.992;8.648;2022-10-13T07:50:19;23.63;;;21.33;;
9547;SDS011;4812;51.992;8.648;2022-10-13T07:52:46;24.13;;;21.83;;
9547;SDS011;4812;51.992;8.648;2022-10-13T07:55:13;26.63;;;22.20;;
9547;SDS011;4812;51.992;8.648;2022-10-13T07:57:43;25.20;;;22.63;;
9547;SDS011;4812;51.992;8.648;2022-10-13T08:00:11;25.10;;;22.60;;
9547;SDS011;4812;51.992;8.648;2022-10-13T08:02:39;25.13;;;22.47;;
9547;SDS011;4812;51.992;8.648;2022-10-13T08:05:07;24.43;;;22.00;;
9547;SDS011;4812;51.992;8.648;2022-10-13T08:07:35;25.43;;;22.40;;
9547;SDS011;4812;51.992;8.648;2022-10-13T08:10:03;24.20;;;21.67;;
9547;SDS011;4812;51.992;8.648;2022-10-13T08:12:31;23.70;;;21.50;;
9547;SDS011;4812;51.992;8.648;2022-10-13T08:15:00;24.57;;;22.33;;
9547;SDS011;4812;51.992;8.648;2022-10-13T08:17:31;25.23;;;22.93;;
9547;SDS011;4812;51.992;8.648;2022-10-13T08:19:59;24.97;;;22.57;;
9547;SDS011;4812;51.992;8.648;2022-10-13T08:22:26;24.73;;;22.43;;
9547;SDS011;4812;51.992;8.648;2022-10-13T08:24:54;24.80;;;22.27;;
9547;SDS011;4812;51.992;8.648;2022-10-13T08:27:23;25.20;;;22.50;;
9547;SDS011;4812;51.992;8.648;2022-10-13T08:30:12;25.07;;;22.43;;
9547;SDS011;4812;51.992;8.648;2022-10-13T08:32:40;24.73;;;22.37;;
9547;SDS011;4812;51.992;8.648;2022-10-13T08:35:07;25.00;;;22.70;;
9547;SDS011;4812;51.992;8.648;2022-10-13T08:37:35;25.83;;;23.20;;
9547;SDS011;4812;51.992;8.648;2022-10-13T08:40:03;25.60;;;23.30;;
9547;SDS011;4812;51.992;8.648;2022-10-13T08:42:30;27.10;;;23.37;;
9547;SDS011;4812;51.992;8.648;2022-10-13T08:44:59;24.90;;;22.60;;
9547;SDS011;4812;51.992;8.648;2022-10-13T08:47:49;25.00;;;22.80;;
9547;SDS011;4812;51.992;8.648;2022-10-13T08:50:20;25.47;;;22.97;;
9547;SDS011;4812;51.992;8.648;2022-10-13T08:52:51;24.13;;;21.90;;
9547;SDS011;4812;51.992;8.648;2022-10-13T08:55:22;24.40;;;22.00;;
9547;SDS011;4812;51.992;8.648;2022-10-13T08:57:51;25.40;;;22.70;;
9547;SDS011;4812;51.992;8.648;2022-10-13T09:00:24;24.80;;;22.27;;
9547;SDS011;4812;51.992;8.648;2022-10-13T09:02:53;25.77;;;23.10;;
9547;SDS011;4812;51.992;8.648;2022-10-13T09:05:26;25.43;;;22.80;;
9547;SDS011;4812;51.992;8.648;2022-10-13T09:08:02;24.53;;;22.13;;
9547;SDS011;4812;51.992;8.648;2022-10-13T09:10:31;24.60;;;22.47;;
9547;SDS011;4812;51.992;8.648;2022-10-13T09:12:58;27.00;;;23.13;;
9547;SDS011;4812;51.992;8.648;2022-10-13T09:15:26;26.20;;;23.50;;
9547;SDS011;4812;51.992;8.648;2022-10-13T09:18:08;24.97;;;22.63;;
9547;SDS011;4812;51.992;8.648;2022-10-13T09:20:36;26.37;;;23.83;;
9547;SDS011;4812;51.992;8.648;2022-10-13T09:23:16;25.13;;;22.70;;
9547;SDS011;4812;51.992;8.648;2022-10-13T09:25:46;25.93;;;23.37;;
9547;SDS011;4812;51.992;8.648;2022-10-13T09:28:15;25.50;;;23.20;;
9547;SDS011;4812;51.992;8.648;2022-10-13T09:30:46;25.33;;;22.83;;
9547;SDS011;4812;51.992;8.648;2022-10-13T09:33:18;26.03;;;23.63;;
9547;SDS011;4812;51.992;8.648;2022-10-13T09:35:48;25.40;;;23.17;;
9547;SDS011;4812;51.992;8.648;2022-10-13T09:38:17;25.83;;;23.40;;
9547;SDS011;4812;51.992;8.648;2022-10-13T09:40:55;25.17;;;22.97;;
9547;SDS011;4812;51.992;8.648;2022-10-13T09:43:27;26.33;;;23.77;;
9547;SDS011;4812;51.992;8.648;2022-10-13T09:45:56;26.03;;;23.53;;
9547;SDS011;4812;51.992;8.648;2022-10-13T09:48:26;26.00;;;23.47;;
9547;SDS011;4812;51.992;8.648;2022-10-13T09:50:55;26.03;;;23.63;;
9547;SDS011;4812;51.992;8.648;2022-10-13T09:53:24;26.83;;;24.10;;
9547;SDS011;4812;51.992;8.648;2022-10-13T09:56:11;25.90;;;23.53;;
9547;SDS011;4812;51.992;8.648;2022-10-13T09:58:45;25.90;;;23.20;;
9547;SDS011;4812;51.992;8.648;2022-10-13T10:01:17;27.10;;;23.40;;
9547;SDS011;4812;51.992;8.648;2022-10-13T10:03:50;25.50;;;23.20;;
9547;SDS011;4812;51.992;8.648;2022-10-13T10:06:18;27.07;;;24.27;;
9547;SDS011;4812;51.992;8.648;2022-10-13T10:08:51;25.63;;;23.27;;
9547;SDS011;4812;51.992;8.648;2022-10-13T10:11:29;25.93;;;23.17;;
9547;SDS011;4812;51.992;8.648;2022-10-13T10:14:00;25.73;;;23.27;;
9547;SDS011;4812;51.992;8.648;2022-10-13T10:16:32;26.87;;;24.03;;
9547;SDS011;4812;51.992;8.648;2022-10-13T10:19:04;25.83;;;23.53;;
9547;SDS011;4812;51.992;8.648;2022-10-13T10:21:37;26.07;;;23.83;;
9547;SDS011;4812;51.992;8.648;2022-10-13T10:24:13;26.20;;;23.80;;
9547;SDS011;4812;51.992;8.648;2022-10-13T10:26:47;26.97;;;24.10;;
9547;SDS011;4812;51.992;8.648;2022-10-13T10:29:25;26.33;;;23.83;;
9547;SDS011;4812;51.992;8.648;2022-10-13T10:32:03;26.70;;;23.97;;
9547;SDS011;4812;51.992;8.648;2022-10-13T10:34:39;25.50;;;23.30;;
9547;SDS011;4812;51.992;8.648;2022-10-13T10:37:19;26.57;;;23.83;;
9547;SDS011;4812;51.992;8.648;2022-10-13T10:39:58;26.13;;;23.60;;
9547;SDS011;4812;51.992;8.648;2022-10-13T10:42:37;25.83;;;23.33;;
9547;SDS011;4812;51.992;8.648;2022-10-13T10:45:17;25.03;;;22.73;;
9547;SDS011;4812;51.992;8.648;2022-10-13T10:47:47;24.93;;;22.73;;
9547;SDS011;4812;51.992;8.648;2022-10-13T10:50:19;25.90;;;23.43;;
9547;SDS011;4812;51.992;8.648;2022-10-13T10:52:50;25.57;;;23.07;;
9547;SDS011;4812;51.992;8.648;2022-10-13T10:55:22;26.17;;;23.50;;
9547;SDS011;4812;51.992;8.648;2022-10-13T10:57:58;25.13;;;22.93;;
9547;SDS011;4812;51.992;8.648;2022-10-13T11:00:32;25.80;;;23.20;;
9547;SDS011;4812;51.992;8.648;2022-10-13T11:03:06;26.07;;;23.33;;
9547;SDS011;4812;51.992;8.648;2022-10-13T11:08:37;26.23;;;23.60;;
9547;SDS011;4812;51.992;8.648;2022-10-13T11:14:28;25.70;;;23.40;;
9547;SDS011;4812;51.992;8.648;2022-10-13T11:17:09;25.33;;;23.03;;
9547;SDS011;4812;51.992;8.648;2022-10-13T11:19:43;26.20;;;23.37;;
9547;SDS011;4812;51.992;8.648;2022-10-13T11:22:13;25.30;;;23.00;;
9547;SDS011;4812;51.992;8.648;2022-10-13T11:24:51;25.77;;;23.10;;
9547;SDS011;4812;51.992;8.648;2022-10-13T11:27:37;24.70;;;22.47;;
9547;SDS011;4812;51.992;8.648;2022-10-13T11:36:29;23.60;;;21.50;;
9547;SDS011;4812;51.992;8.648;2022-10-13T11:39:00;23.67;;;21.47;;
9547;SDS011;4812;51.992;8.648;2022-10-13T11:41:34;23.90;;;21.90;;
9547;SDS011;4812;51.992;8.648;2022-10-13T11:44:09;22.47;;;20.67;;
9547;SDS011;4812;51.992;8.648;2022-10-13T11:46:49;23.93;;;21.53;;
9547;SDS011;4812;51.992;8.648;2022-10-13T11:49:34;23.30;;;21.20;;
9547;SDS011;4812;51.992;8.648;2022-10-13T11:52:23;22.57;;;20.40;;
9547;SDS011;4812;51.992;8.648;2022-10-13T11:54:59;23.73;;;21.40;;
9547;SDS011;4812;51.992;8.648;2022-10-13T11:57:29;23.07;;;20.73;;
9547;SDS011;4812;51.992;8.648;2022-10-13T12:00:00;22.47;;;20.47;;
9547;SDS011;4812;51.992;8.648;2022-10-13T12:02:45;22.80;;;20.80;;
9547;SDS011;4812;51.992;8.648;2022-10-13T12:05:20;22.10;;;20.20;;
9547;SDS011;4812;51.992;8.648;2022-10-13T12:07:49;21.90;;;20.00;;
9547;SDS011;4812;51.992;8.648;2022-10-13T12:10:19;22.80;;;20.97;;
9547;SDS011;4812;51.992;8.648;2022-10-13T12:12:49;22.60;;;20.70;;
9547;SDS011;4812;51.992;8.648;2022-10-13T12:15:25;22.43;;;20.37;;
9547;SDS011;4812;51.992;8.648;2022-10-13T12:17:55;23.17;;;20.97;;
9547;SDS011;4812;51.992;8.648;2022-10-13T12:20:23;22.57;;;20.73;;
9547;SDS011;4812;51.992;8.648;2022-10-13T12:22:52;22.63;;;20.83;;
9547;SDS011;4812;51.992;8.648;2022-10-13T12:25:22;22.00;;;20.13;;
9547;SDS011;4812;51.992;8.648;2022-10-13T12:27:56;22.33;;;20.63;;
9547;SDS011;4812;51.992;8.648;2022-10-13T12:30:25;22.00;;;20.00;;
9547;SDS011;4812;51.992;8.648;2022-10-13T12:32:55;22.63;;;20.63;;
9547;SDS011;4812;51.992;8.648;2022-10-13T12:35:24;22.83;;;20.80;;
9547;SDS011;4812;51.992;8.648;2022-10-13T12:37:54;22.10;;;20.30;;
9547;SDS011;4812;51.992;8.648;2022-10-13T12:40:23;22.60;;;20.60;;
9547;SDS011;4812;51.992;8.648;2022-10-13T12:42:51;23.80;;;21.70;;
9547;SDS011;4812;51.992;8.648;2022-10-13T12:45:19;22.17;;;20.10;;
9547;SDS011;4812;51.992;8.648;2022-10-13T12:47:48;22.07;;;19.93;;
9547;SDS011;4812;51.992;8.648;2022-10-13T12:53:04;22.50;;;20.70;;
9547;SDS011;4812;51.992;8.648;2022-10-13T12:55:45;21.33;;;19.60;;
9547;SDS011;4812;51.992;8.648;2022-10-13T12:58:18;21.20;;;19.60;;
9547;SDS011;4812;51.992;8.648;2022-10-13T13:00:55;21.37;;;19.67;;
9547;SDS011;4812;51.992;8.648;2022-10-13T13:03:25;21.87;;;20.03;;
9547;SDS011;4812;51.992;8.648;2022-10-13T13:06:06;21.93;;;20.17;;
9547;SDS011;4812;51.992;8.648;2022-10-13T13:12:05;21.17;;;19.47;;
9547;SDS011;4812;51.992;8.648;2022-10-13T13:14:47;22.23;;;20.43;;
9547;SDS011;4812;51.992;8.648;2022-10-13T13:17:26;22.20;;;20.33;;
9547;SDS011;4812;51.992;8.648;2022-10-13T13:20:19;21.80;;;19.97;;
9547;SDS011;4812;51.992;8.648;2022-10-13T13:22:48;21.07;;;19.47;;
9547;SDS011;4812;51.992;8.648;2022-10-13T13:25:16;21.27;;;19.47;;
9547;SDS011;4812;51.992;8.648;2022-10-13T13:27:45;21.73;;;19.93;;
9547;SDS011;4812;51.992;8.648;2022-10-13T13:30:15;21.73;;;19.83;;
9547;SDS011;4812;51.992;8.648;2022-10-13T13:32:45;21.40;;;19.73;;
9547;SDS011;4812;51.992;8.648;2022-10-13T13:35:13;21.50;;;19.60;;
9547;SDS011;4812;51.992;8.648;2022-10-13T13:37:41;21.00;;;19.27;;
9547;SDS011;4812;51.992;8.648;2022-10-13T13:40:13;21.77;;;20.17;;
9547;SDS011;4812;51.992;8.648;2022-10-13T13:42:42;21.80;;;19.93;;
9547;SDS011;4812;51.992;8.648;2022-10-13T13:45:12;22.37;;;20.63;;
9547;SDS011;4812;51.992;8.648;2022-10-13T13:47:39;21.80;;;20.00;;
9547;SDS011;4812;51.992;8.648;2022-10-13T13:50:09;21.53;;;19.70;;
9547;SDS011;4812;51.992;8.648;2022-10-13T13:52:43;21.20;;;19.50;;
9547;SDS011;4812;51.992;8.648;2022-10-13T13:55:12;21.00;;;19.10;;
9547;SDS011;4812;51.992;8.648;2022-10-13T13:57:40;22.30;;;20.07;;
9547;SDS011;4812;51.992;8.648;2022-10-13T14:00:09;21.43;;;19.40;;
9547;SDS011;4812;51.992;8.648;2022-10-13T14:02:39;21.03;;;19.43;;
9547;SDS011;4812;51.992;8.648;2022-10-13T14:05:08;21.40;;;19.43;;
9547;SDS011;4812;51.992;8.648;2022-10-13T14:07:36;20.70;;;19.03;;
9547;SDS011;4812;51.992;8.648;2022-10-13T14:10:04;21.03;;;19.07;;
9547;SDS011;4812;51.992;8.648;2022-10-13T14:12:32;36.03;;;30.03;;
9547;SDS011;4812;51.992;8.648;2022-10-13T14:15:00;45.97;;;34.27;;
9547;SDS011;4812;51.992;8.648;2022-10-13T14:17:28;83.37;;;51.03;;
9547;SDS011;4812;51.992;8.648;2022-10-13T14:19:57;48.07;;;34.27;;
9547;SDS011;4812;51.992;8.648;2022-10-13T14:22:24;23.60;;;21.40;;
9547;SDS011;4812;51.992;8.648;2022-10-13T14:24:52;26.63;;;23.97;;
9547;SDS011;4812;51.992;8.648;2022-10-13T14:27:20;28.60;;;24.80;;
9547;SDS011;4812;51.992;8.648;2022-10-13T14:29:48;32.80;;;26.27;;
9547;SDS011;4812;51.992;8.648;2022-10-13T14:32:16;26.13;;;23.03;;
9547;SDS011;4812;51.992;8.648;2022-10-13T14:34:44;24.23;;;21.73;;
9547;SDS011;4812;51.992;8.648;2022-10-13T14:37:13;26.53;;;23.23;;
9547;SDS011;4812;51.992;8.648;2022-10-13T14:39:40;23.07;;;20.93;;
9547;SDS011;4812;51.992;8.648;2022-10-13T14:42:07;22.57;;;19.53;;
9547;SDS011;4812;51.992;8.648;2022-10-13T14:44:35;21.60;;;19.40;;
9547;SDS011;4812;51.992;8.648;2022-10-13T14:47:02;20.00;;;18.50;;
9547;SDS011;4812;51.992;8.648;2022-10-13T14:49:30;20.13;;;18.57;;
9547;SDS011;4812;51.992;8.648;2022-10-13T14:51:57;19.43;;;17.93;;
9547;SDS011;4812;51.992;8.648;2022-10-13T14:54:27;19.73;;;18.10;;
9547;SDS011;4812;51.992;8.648;2022-10-13T14:56:55;20.97;;;18.97;;
9547;SDS011;4812;51.992;8.648;2022-10-13T14:59:24;21.77;;;20.00;;
9547;SDS011;4812;51.992;8.648;2022-10-13T15:01:59;21.57;;;19.73;;
9547;SDS011;4812;51.992;8.648;2022-10-13T15:04:26;22.47;;;20.37;;
9547;SDS011;4812;51.992;8.648;2022-10-13T15:06:54;21.20;;;19.40;;
9547;SDS011;4812;51.992;8.648;2022-10-13T15:09:22;19.90;;;18.40;;
9547;SDS011;4812;51.992;8.648;2022-10-13T15:12:13;22.27;;;20.23;;
9547;SDS011;4812;51.992;8.648;2022-10-13T15:14:40;20.27;;;18.50;;
9547;SDS011;4812;51.992;8.648;2022-10-13T15:17:07;19.67;;;17.97;;
9547;SDS011;4812;51.992;8.648;2022-10-13T15:19:35;19.00;;;17.43;;
9547;SDS011;4812;51.992;8.648;2022-10-13T15:22:04;20.00;;;18.30;;
9547;SDS011;4812;51.992;8.648;2022-10-13T15:24:32;20.90;;;18.90;;
9547;SDS011;4812;51.992;8.648;2022-10-13T15:27:00;20.23;;;18.33;;
9547;SDS011;4812;51.992;8.648;2022-10-13T15:29:29;19.77;;;18.37;;
9547;SDS011;4812;51.992;8.648;2022-10-13T15:32:05;19.43;;;17.97;;
9547;SDS011;4812;51.992;8.648;2022-10-13T15:34:34;19.73;;;18.07;;